createdAt,value
2022-07-26T00:03:47.632Z,19.70
2022-07-26T00:10:49.366Z,19.70
2022-07-26T00:17:49.606Z,19.70
2022-07-26T00:24:50.242Z,19.60
2022-07-26T00:31:50.947Z,19.50
2022-07-26T00:38:51.593Z,19.40
2022-07-26T00:45:52.089Z,19.30
2022-07-26T00:52:53.030Z,19.20
2022-07-26T00:59:53.877Z,19.10
2022-07-26T01:06:55.063Z,19.00
2022-07-26T01:13:55.350Z,18.90
2022-07-26T01:20:57.836Z,18.80
2022-07-26T01:27:58.622Z,18.70
2022-07-26T01:34:58.839Z,18.60
2022-07-26T01:41:59.270Z,18.50
2022-07-26T01:49:01.711Z,18.40
2022-07-26T01:56:02.227Z,18.40
2022-07-26T02:03:03.286Z,18.30
2022-07-26T02:10:04.405Z,18.20
2022-07-26T02:17:05.175Z,18.20
2022-07-26T02:24:07.578Z,18.20
2022-07-26T02:31:08.367Z,18.10
2022-07-26T02:38:12.422Z,18.10
2022-07-26T02:45:12.928Z,18.10
2022-07-26T02:52:13.686Z,18.10
2022-07-26T02:59:14.176Z,18.10
2022-07-26T03:06:14.386Z,18.00
2022-07-26T03:13:15.292Z,18.00
2022-07-26T03:20:16.194Z,18.00
2022-07-26T03:27:16.939Z,18.00
2022-07-26T03:34:17.651Z,18.00
2022-07-26T03:41:18.470Z,18.10
2022-07-26T03:48:18.782Z,18.10
2022-07-26T03:55:37.656Z,18.00
2022-07-26T04:02:38.122Z,18.00
2022-07-26T04:09:38.410Z,18.00
2022-07-26T04:16:43.422Z,18.00
2022-07-26T04:23:49.205Z,18.00
2022-07-26T04:30:51.429Z,18.00
2022-07-26T04:37:51.923Z,18.00
2022-07-26T04:44:52.421Z,18.00
2022-07-26T04:51:57.585Z,18.00
2022-07-26T04:58:59.477Z,18.10
2022-07-26T05:05:59.963Z,18.10
2022-07-26T05:13:00.986Z,18.20
2022-07-26T05:20:03.320Z,18.30
2022-07-26T05:27:04.315Z,18.20
2022-07-26T05:34:05.373Z,18.20
2022-07-26T05:41:06.256Z,18.20
2022-07-26T05:48:06.905Z,18.20
2022-07-26T05:55:07.819Z,18.20
2022-07-26T06:02:08.497Z,18.20
2022-07-26T06:09:09.471Z,18.20
2022-07-26T06:16:10.441Z,18.30
2022-07-26T06:23:11.009Z,18.30
2022-07-26T06:30:12.502Z,18.30
2022-07-26T06:37:13.326Z,18.30
2022-07-26T06:44:13.905Z,18.30
2022-07-26T06:51:14.582Z,18.40
2022-07-26T06:58:14.994Z,18.40
2022-07-26T07:05:16.130Z,18.60
2022-07-26T07:12:17.310Z,18.70
2022-07-26T07:19:17.855Z,18.80
2022-07-26T07:26:20.065Z,19.00
2022-07-26T07:33:22.731Z,19.20
2022-07-26T07:40:23.967Z,19.20
2022-07-26T07:47:24.281Z,19.40
2022-07-26T07:54:24.633Z,19.50
2022-07-26T08:01:25.594Z,19.40
2022-07-26T08:08:40.843Z,19.40
2022-07-26T08:15:44.073Z,19.40
2022-07-26T08:22:44.841Z,19.60
2022-07-26T08:29:45.423Z,19.70
2022-07-26T08:37:07.224Z,19.70
2022-07-26T08:44:08.061Z,19.70
2022-07-26T08:51:11.137Z,19.90
2022-07-26T08:58:12.112Z,20.10
2022-07-26T09:05:15.508Z,20.30
2022-07-26T09:12:18.679Z,20.30
2022-07-26T09:19:22.681Z,20.20
2022-07-26T09:26:23.809Z,20.30
2022-07-26T09:33:24.478Z,20.40
2022-07-26T09:40:34.645Z,20.60
2022-07-26T09:47:37.235Z,20.80
2022-07-26T09:54:38.101Z,20.90
2022-07-26T10:01:38.677Z,21.30
2022-07-26T10:08:39.800Z,21.40
2022-07-26T10:15:47.441Z,21.50
2022-07-26T10:22:50.313Z,21.60
2022-07-26T10:29:50.921Z,21.80
2022-07-26T10:36:59.263Z,21.80
2022-07-26T10:44:14.367Z,22.10
2022-07-26T10:51:29.627Z,22.40
2022-07-26T10:58:42.589Z,22.70
2022-07-26T11:05:43.878Z,22.90
2022-07-26T11:12:44.085Z,22.40
2022-07-26T11:19:44.572Z,22.30
2022-07-26T11:26:46.862Z,22.40
2022-07-26T11:33:50.811Z,22.60
2022-07-26T11:40:51.525Z,23.10
2022-07-26T11:47:58.694Z,23.30
2022-07-26T11:54:59.376Z,23.30
2022-07-26T12:02:01.241Z,23.30
2022-07-26T12:09:01.411Z,22.60
2022-07-26T12:16:02.058Z,22.20
2022-07-26T12:23:06.010Z,22.20
2022-07-26T12:30:09.311Z,22.40
2022-07-26T12:37:15.442Z,22.40
2022-07-26T12:44:16.889Z,22.70
2022-07-26T12:51:17.927Z,22.80
2022-07-26T12:58:18.495Z,22.60
2022-07-26T13:05:19.127Z,22.60
2022-07-26T13:12:19.457Z,22.70
2022-07-26T13:19:20.272Z,23.00
2022-07-26T13:26:21.028Z,23.80
2022-07-26T13:33:22.691Z,24.10
2022-07-26T13:40:27.573Z,24.40
2022-07-26T13:47:31.098Z,24.50
2022-07-26T13:54:33.666Z,24.50
2022-07-26T14:01:43.467Z,24.30
2022-07-26T14:08:45.159Z,24.60
2022-07-26T14:15:45.742Z,24.30
2022-07-26T14:22:46.177Z,24.10
2022-07-26T14:29:46.883Z,23.60
2022-07-26T14:36:47.616Z,23.30
2022-07-26T14:43:54.052Z,23.00
2022-07-26T14:51:09.029Z,22.80
2022-07-26T14:58:09.780Z,22.50
2022-07-26T15:05:11.764Z,22.80
2022-07-26T15:12:12.173Z,22.70
2022-07-26T15:19:12.650Z,22.50
2022-07-26T15:26:13.038Z,22.40
2022-07-26T15:33:14.569Z,22.20
2022-07-26T15:40:14.917Z,21.90
2022-07-26T15:47:30.734Z,21.70
2022-07-26T15:54:35.965Z,21.60
2022-07-26T16:01:36.822Z,21.60
2022-07-26T16:08:52.697Z,21.80
2022-07-26T16:15:58.027Z,22.00
2022-07-26T16:22:59.760Z,22.00
2022-07-26T16:30:00.328Z,22.20
2022-07-26T16:37:01.186Z,22.30
2022-07-26T16:44:01.354Z,22.20
2022-07-26T16:51:01.915Z,22.20
2022-07-26T16:58:02.957Z,22.10
2022-07-26T17:05:04.557Z,21.90
2022-07-26T17:12:06.807Z,22.00
2022-07-26T17:19:07.070Z,22.00
2022-07-26T17:26:07.674Z,22.20
2022-07-26T17:33:07.883Z,22.50
2022-07-26T17:40:09.101Z,22.40
2022-07-26T17:47:27.367Z,22.10
2022-07-26T17:54:29.874Z,21.80
2022-07-26T18:01:30.655Z,21.70
2022-07-26T18:08:31.601Z,21.60
2022-07-26T18:15:33.005Z,21.50
2022-07-26T18:22:33.730Z,21.30
2022-07-26T18:29:34.143Z,21.30
2022-07-26T18:36:34.815Z,21.30
2022-07-26T18:43:35.287Z,21.30
2022-07-26T18:50:35.839Z,21.00
2022-07-26T18:57:37.808Z,20.70
2022-07-26T19:04:38.097Z,20.60
2022-07-26T19:11:38.881Z,20.50
2022-07-26T19:18:39.692Z,20.40
2022-07-26T19:25:40.877Z,20.10
2022-07-26T19:32:41.313Z,20.00
2022-07-26T19:39:42.025Z,19.80
2022-07-26T19:46:43.259Z,19.70
2022-07-26T19:53:45.866Z,19.60
2022-07-26T20:00:46.762Z,19.50
2022-07-26T20:07:49.788Z,19.30
2022-07-26T20:14:50.581Z,19.20
2022-07-26T20:21:51.566Z,19.10
2022-07-26T20:28:51.993Z,19.00
2022-07-26T20:35:55.053Z,19.00
2022-07-26T20:42:56.313Z,18.90
2022-07-26T20:50:01.155Z,18.90
2022-07-26T20:57:04.649Z,18.80
2022-07-26T21:04:04.911Z,18.80
2022-07-26T21:11:05.689Z,18.80
2022-07-26T21:18:06.775Z,18.70
2022-07-26T21:25:08.524Z,18.70
2022-07-26T21:32:09.167Z,18.60
2022-07-26T21:39:10.648Z,18.50
2022-07-26T21:46:13.371Z,18.50
2022-07-26T21:53:13.959Z,18.40
2022-07-26T22:00:16.112Z,18.40
2022-07-26T22:07:16.486Z,18.30
2022-07-26T22:14:17.470Z,18.20
2022-07-26T22:21:17.904Z,18.20
2022-07-26T22:28:18.987Z,18.10
2022-07-26T22:35:19.540Z,17.90
2022-07-26T22:42:21.048Z,17.90
2022-07-26T22:49:21.961Z,17.70
2022-07-26T22:56:22.198Z,17.60
2022-07-26T23:03:23.026Z,17.60
2022-07-26T23:10:24.029Z,17.40
2022-07-26T23:17:24.386Z,17.40
2022-07-26T23:24:24.953Z,17.30
2022-07-26T23:31:25.749Z,17.20
2022-07-26T23:38:26.562Z,17.10
2022-07-26T23:45:26.769Z,17.00
2022-07-26T23:52:27.231Z,16.90
2022-07-26T23:59:27.517Z,16.80
